Latest Weather Observations for Warburton

IDD60801

Issued at 5:21 pm CST Saturday 22 September 2018 (issued every 10 minutes, with the page automatically refreshed every 10 minutes)

About weather observations | Map of weather stations | Latest weather observations for NT | Other Formats
Station Details ID: 013011 Name: WARBURTON AIRFIELD Lat: -26.13 Lon: 126.58 Height: 459.0 m
Data from the previous 72 hours. | See also: Recent months at Warburton
Date/Time
CST
Temp
°C
App
Temp
°C
Dew
Point
°C
Rel
Hum
%
Delta-T
°C
Wind Press
QNH
hPa
Press
MSL
hPa
Rain since
9am
mm
Dir  Spd
km/h
Gust
km/h
Spd
kts
Gust
kts
22/05:00pm 28.3 22.7 -2.7 13 14.3 ESE 17 30 9 16 1021.1 - 0.0
22/04:30pm 28.2 22.6 -2.8 13 14.2 E 17 30 9 16 1021.3 1019.8 0.0
22/04:00pm 28.1 22.5 -2.9 13 14.2 E 17 32 9 17 1021.7 - 0.0
22/03:30pm 28.5 22.7 -1.6 14 14.1 ENE 19 28 10 15 1021.9 - 0.0
22/03:00pm 28.6 22.7 -2.5 13 14.4 E 19 28 10 15 1022.2 - 0.0
22/02:30pm 27.8 22.2 -3.1 13 14.1 NE 17 32 9 17 1022.8 - 0.0
22/02:00pm 27.1 21.0 -2.7 14 13.6 E 20 32 11 17 1023.3 - 0.0
22/01:30pm 26.9 21.0 -1.9 15 13.2 ENE 19 35 10 19 1024.0 1022.4 0.0
22/01:00pm 26.8 20.2 -0.3 17 12.9 E 24 39 13 21 1024.9 - 0.0
22/12:30pm 26.5 19.5 -0.5 17 12.7 E 26 35 14 19 1025.4 - 0.0
22/12:00pm 25.6 20.7 1.7 21 11.7 E 17 30 9 16 1025.9 - 0.0
22/11:30am 25.0 19.8 2.4 23 11.1 E 19 28 10 15 1026.5 - 0.0
22/11:00am 24.2 19.1 4.0 27 10.2 NE 20 32 11 17 1026.6 - 0.0
22/10:30am 22.9 18.1 5.8 33 8.8 ENE 20 26 11 14 1026.5 1025.0 0.0
22/10:00am 22.0 16.8 5.4 34 8.5 ENE 22 32 12 17 1026.4 - 0.0
22/09:30am 21.4 15.8 5.3 35 8.2 ENE 24 37 13 20 1026.4 - 0.0
22/09:00am 19.9 15.5 7.3 44 6.6 NE 20 30 11 16 1026.3 - 0.0
22/08:30am 18.1 14.2 8.7 54 5.0 NE 19 26 10 14 1026.1 - 0.0
22/08:00am 16.3 12.4 9.3 63 3.7 NE 20 32 11 17 1025.7 - 0.0
22/07:30am 15.1 11.3 9.2 68 3.1 NE 19 26 10 14 1025.5 1024.0 0.0
22/07:00am 14.4 10.9 8.8 69 2.9 NE 17 22 9 12 1025.2 - 0.0
22/06:30am 13.9 11.1 8.7 71 2.7 NNE 13 19 7 10 1024.9 - 0.0
22/06:00am 14.1 11.3 8.5 69 2.9 NE 13 17 7 9 1024.6 - 0.0
22/05:30am 14.5 11.3 8.5 67 3.1 NNE 15 19 8 10 1024.4 - 0.0
22/05:00am 15.4 11.9 8.9 65 3.4 NE 17 26 9 14 1023.9 - 0.0
22/04:30am 15.8 11.9 8.8 63 3.6 NE 19 28 10 15 1023.8 1022.2 0.0
22/04:00am 16.2 12.1 8.7 61 3.9 NE 20 30 11 16 1023.8 - 0.0
22/03:30am 16.5 12.4 8.5 59 4.2 NE 20 30 11 16 1023.9 - 0.0
22/03:00am 16.2 14.0 7.9 58 4.3 NE 9 13 5 7 1023.9 - 0.0
22/02:30am 16.5 14.7 8.0 57 4.4 E 7 15 4 8 1024.0 - 0.0
22/02:00am 16.6 14.5 8.3 58 4.3 NNE 9 11 5 6 1024.0 - 0.0
22/01:30am 17.1 14.6 8.3 56 4.6 NNE 11 15 6 8 1024.0 1022.4 0.0
22/01:00am 17.4 15.0 8.5 56 4.7 NNE 11 13 6 7 1024.3 - 0.0
22/12:30am 18.4 15.7 8.9 54 5.1 NE 13 17 7 9 1024.3 - 0.0
22/12:00am 18.8 16.0 8.7 52 5.4 NE 13 17 7 9 1024.3 - 0.0
 
Date/Time
CST
Temp
°C
App
Temp
°C
Dew
Point
°C
Rel
Hum
%
Delta-T
°C
Wind Press
QNH
hPa
Press
MSL
hPa
Rain since
9am
mm
Dir  Spd
km/h
Gust
km/h
Spd
kts
Gust
kts
21/11:30pm 19.4 16.4 9.3 52 5.5 NE 15 22 8 12 1024.3 - 0.0
21/11:00pm 19.7 16.6 9.0 50 5.8 NE 15 20 8 11 1024.4 - 0.0
21/10:30pm 20.2 17.4 8.5 47 6.2 NE 13 19 7 10 1024.3 1022.8 0.0
21/10:00pm 20.3 17.1 8.6 47 6.3 ENE 15 20 8 11 1024.0 - 0.0
21/09:30pm 20.8 18.1 8.8 46 6.5 NE 13 20 7 11 1024.0 - 0.0
21/09:00pm 21.6 17.9 8.1 42 7.2 ENE 17 24 9 13 1023.6 - 0.0
21/08:30pm 22.4 19.2 7.0 37 8.1 ENE 13 19 7 10 1023.2 - 0.0
21/08:00pm 22.5 19.7 7.1 37 8.1 ENE 11 15 6 8 1022.7 - 0.0
21/07:30pm 21.9 20.8 4.9 33 8.6 CALM 0 0 0 0 1022.2 1020.6 0.0
21/07:00pm 24.1 23.2 5.9 31 9.5 CALM 0 0 0 0 1021.9 - 0.0
21/06:30pm 25.1 23.0 5.8 29 10.1 SE 6 7 3 4 1021.6 - 0.0
21/06:00pm 24.7 22.6 6.0 30 9.8 ESE 6 9 3 5 1021.2 - 0.0
21/05:30pm 25.1 22.5 6.3 30 9.9 E 9 13 5 7 1021.0 - 0.0
21/05:00pm 25.7 23.1 6.3 29 10.3 E 9 15 5 8 1020.8 - 0.0
21/04:30pm 26.1 23.8 5.7 27 10.7 S 7 11 4 6 1020.7 1019.2 0.0
21/04:00pm 26.1 23.6 6.7 29 10.4 N 9 17 5 9 1020.7 - 0.0
21/03:30pm 25.9 23.4 6.5 29 10.3 ESE 9 15 5 8 1020.9 - 0.0
21/03:00pm 24.6 22.5 6.8 32 9.5 S 7 13 4 7 1021.3 - 0.0
21/02:30pm 25.0 22.6 7.2 32 9.5 ENE 9 20 5 11 1021.9 - 0.0
21/02:00pm 25.7 22.6 7.3 31 9.9 N 13 24 7 13 1022.4 - 0.0
21/01:30pm 25.7 23.1 7.8 32 9.7 NNW 11 17 6 9 1022.9 1021.4 0.0
21/01:00pm 23.4 20.1 7.9 37 8.3 NNE 15 24 8 13 1023.4 - 0.0
21/12:30pm 23.5 19.2 7.2 35 8.7 N 19 26 10 14 1023.9 - 0.0
21/12:00pm 24.0 20.7 8.0 36 8.7 NNE 15 24 8 13 1024.4 - 0.0
21/11:30am 22.5 19.0 7.1 37 8.1 NNE 15 24 8 13 1024.8 - 0.0
21/11:00am 22.9 18.9 6.6 35 8.5 NNE 17 26 9 14 1024.9 - 0.0
21/10:30am 21.5 17.5 8.1 42 7.1 NNE 19 28 10 15 1025.1 1023.6 0.0
21/10:00am 20.9 16.6 7.2 41 7.2 NNE 19 26 10 14 1025.1 - 0.0
21/09:30am 20.0 15.7 5.3 38 7.4 NE 17 22 9 12 1025.0 - 0.0
21/09:00am 18.7 15.1 4.8 40 6.9 NE 13 19 7 10 1024.9 - 0.0
21/08:30am 17.3 14.6 2.9 38 6.8 ENE 6 11 3 6 1024.8 - 0.0
21/08:00am 12.7 10.2 -4.4 30 6.6 CALM 0 0 0 0 1024.3 - 0.0
21/07:30am 7.8 5.0 -6.7 35 4.9 CALM 0 0 0 0 1024.0 1022.4 0.0
21/07:00am 6.0 2.0 -7.2 38 4.4 E 6 9 3 5 1023.8 - 0.0
21/06:30am 6.1 3.3 -6.5 40 4.3 CALM 0 0 0 0 1023.4 - 0.0
21/06:00am 6.6 2.7 -6.7 38 4.5 SSE 6 7 3 4 1022.9 - 0.0
21/05:30am 7.1 4.3 -7.3 35 4.8 CALM 0 0 0 0 1022.7 - 0.0
21/05:00am 7.3 3.4 -6.8 36 4.8 S 6 7 3 4 1022.4 - 0.0
21/04:30am 7.9 4.0 -6.2 36 4.9 WNW 6 7 3 4 1022.1 1020.5 0.0
21/04:00am 7.6 4.8 -6.9 35 4.9 CALM 0 0 0 0 1021.9 - 0.0
21/03:30am 8.1 5.3 -6.8 34 5.1 CALM 0 0 0 0 1021.8 - 0.0
21/03:00am 8.2 5.4 -6.7 34 5.1 CALM 0 0 0 0 1021.9 - 0.0
21/02:30am 9.2 6.5 -5.8 34 5.4 CALM 0 0 0 0 1022.0 - 0.0
21/02:00am 9.8 5.9 -4.9 35 5.4 SSE 7 7 4 4 1022.2 - 0.0
21/01:30am 9.7 5.3 -5.8 33 5.5 ESE 9 9 5 5 1022.3 1020.7 0.0
21/01:00am 10.5 6.8 -4.7 34 5.7 SE 6 7 3 4 1022.5 - 0.0
21/12:30am 12.0 9.5 -4.2 32 6.2 CALM 0 0 0 0 1022.6 - 0.0
21/12:00am 12.2 8.4 -4.0 32 6.3 ESE 7 9 4 5 1022.7 - 0.0
 
Date/Time
CST
Temp
°C
App
Temp
°C
Dew
Point
°C
Rel
Hum
%
Delta-T
°C
Wind Press
QNH
hPa
Press
MSL
hPa
Rain since
9am
mm
Dir  Spd
km/h
Gust
km/h
Spd
kts
Gust
kts
20/11:30pm 13.6 9.8 -3.6 30 6.8 ESE 7 9 4 5 1022.9 - 0.0
20/11:00pm 14.3 10.1 -3.9 28 7.2 ESE 9 11 5 6 1022.9 - 0.0
20/10:30pm 15.7 11.6 -3.2 27 7.7 SE 9 11 5 6 1022.7 1021.2 0.0
20/10:00pm 16.9 12.4 -3.2 25 8.3 E 11 13 6 7 1022.6 - 0.0
20/09:30pm 16.8 12.7 -3.3 25 8.3 ESE 9 11 5 6 1022.5 - 0.0
20/09:00pm 18.4 13.9 -3.1 23 9.0 SE 11 15 6 8 1022.0 - 0.0
20/08:30pm 18.8 14.3 -3.3 22 9.3 SE 11 13 6 7 1021.8 - 0.0
20/08:00pm 20.3 15.8 -3.4 20 10.1 SE 11 13 6 7 1021.5 - 0.0
20/07:30pm 22.0 16.7 -3.4 18 10.9 SE 15 20 8 11 1021.1 1019.6 0.0
20/07:00pm 22.9 17.5 -4.2 16 11.6 SE 15 22 8 12 1020.8 - 0.0
20/06:30pm 24.0 18.2 -4.2 15 12.2 SE 17 30 9 16 1020.6 - 0.0
20/06:00pm 24.5 18.5 -2.9 16 12.2 ESE 19 32 10 17 1020.4 - 0.0
20/05:30pm 24.7 17.8 -2.8 16 12.3 SE 24 35 13 19 1020.2 - 0.0
20/05:00pm 24.8 17.9 -2.7 16 12.3 E 24 32 13 17 1020.3 - 0.0
20/04:30pm 24.5 17.7 -2.1 17 12.0 ESE 24 43 13 23 1020.2 1018.6 0.0
20/04:00pm 24.2 19.1 -1.6 18 11.7 SE 15 26 8 14 1020.5 - 0.0
20/03:30pm 25.2 19.4 -1.6 17 12.3 E 19 37 10 20 1020.9 - 0.0
20/03:00pm 24.2 18.8 -1.6 18 11.7 E 17 32 9 17 1021.5 - 0.0
20/02:30pm 24.2 18.3 -0.9 19 11.6 E 20 35 11 19 1022.0 - 0.0
20/02:00pm 23.9 19.0 -0.4 20 11.3 E 15 43 8 23 1022.4 - 0.0
20/01:30pm 24.7 19.0 0.3 20 11.5 E 20 65 11 35 1022.5 1021.0 0.0
20/01:00pm 22.6 15.7 0.4 23 10.3 ESE 26 39 14 21 1023.1 - 0.0
20/12:30pm 22.9 16.5 0.7 23 10.4 E 24 37 13 20 1023.4 - 0.0
20/12:00pm 22.0 15.5 0.5 24 10.0 E 24 39 13 21 1024.2 - 0.0
20/11:30am 21.1 14.5 1.9 28 9.1 E 26 35 14 19 1024.8 - 0.0
20/11:00am 20.2 13.2 2.1 30 8.6 E 28 43 15 23 1025.1 - 0.0
20/10:30am 19.8 12.8 2.2 31 8.3 E 28 39 15 21 1025.3 1023.8 0.0
20/10:00am 18.7 12.0 1.7 32 7.9 E 26 35 14 19 1025.3 - 0.0
20/09:30am 17.1 10.8 1.5 35 7.1 E 24 35 13 19 1024.8 - 0.0
20/09:00am 15.6 10.3 1.7 39 6.3 ESE 19 26 10 14 1024.9 - 0.0
20/08:30am 12.7 7.4 1.7 47 4.8 ESE 19 24 10 13 1024.7 - 0.0
20/08:00am 11.0 6.0 1.5 52 4.1 SE 17 26 9 14 1024.4 - 0.0
20/07:30am 9.8 5.2 1.5 56 3.5 SE 15 20 8 11 1024.1 1022.5 0.0
20/07:00am 9.6 5.4 1.5 57 3.5 SE 13 17 7 9 1023.6 - 0.0
20/06:30am 9.5 5.3 1.4 57 3.4 ESE 13 17 7 9 1023.1 - 0.0
20/06:00am 9.7 5.8 1.4 56 3.5 ESE 11 17 6 9 1022.9 - 0.0
20/05:30am 9.2 5.3 0.9 56 3.5 ESE 11 13 6 7 1022.9 - 0.0
20/05:00am 9.5 5.6 0.9 55 3.6 SE 11 13 6 7 1022.4 - 0.0
20/04:30am 9.8 6.2 0.7 53 3.8 ESE 9 11 5 6 1022.5 1021.0 0.0
20/04:00am 9.4 5.8 0.6 54 3.7 SE 9 13 5 7 1022.5 - 0.0
20/03:30am 10.4 6.8 0.4 50 4.2 SE 9 13 5 7 1022.7 - 0.0
20/03:00am 10.7 6.7 0.4 49 4.3 ESE 11 13 6 7 1022.8 - 0.0
20/02:30am 10.8 6.8 0.2 48 4.4 SE 11 11 6 6 1023.0 - 0.0
20/02:00am 11.2 7.2 0.3 47 4.6 SE 11 13 6 7 1022.9 - 0.0
20/01:30am 11.8 7.8 0.3 45 4.8 SE 11 13 6 7 1023.1 1021.6 0.0
20/01:00am 12.7 8.7 0.5 43 5.2 SE 11 13 6 7 1023.3 - 0.0
20/12:30am 13.3 9.3 0.7 42 5.5 SE 11 15 6 8 1023.5 - 0.0
20/12:00am 13.5 9.9 0.5 41 5.6 SE 9 13 5 7 1023.8 - 0.0
 
Date/Time
CST
Temp
°C
App
Temp
°C
Dew
Point
°C
Rel
Hum
%
Delta-T
°C
Wind Press
QNH
hPa
Press
MSL
hPa
Rain since
9am
mm
Dir  Spd
km/h
Gust
km/h
Spd
kts
Gust
kts
19/11:30pm 14.0 10.0 0.3 39 5.9 SE 11 13 6 7 1023.9 - 0.0
19/11:00pm 14.3 10.3 0.2 38 6.1 SSE 11 13 6 7 1023.8 - 0.0
19/10:30pm 14.4 10.2 -0.8 35 6.4 SE 11 11 6 6 1023.9 1022.3 0.0
19/10:00pm 16.5 12.1 0.6 34 7.1 SE 13 17 7 9 1023.6 - 0.0
19/09:30pm 17.0 13.0 0.2 32 7.4 SE 11 15 6 8 1023.4 - 0.0
19/09:00pm 16.6 12.4 -1.0 30 7.6 SSE 11 13 6 7 1023.1 - 0.0
19/08:30pm 17.2 13.3 -1.4 28 8.0 SE 9 13 5 7 1022.7 - 0.0
19/08:00pm 18.9 14.3 -1.0 26 8.7 SE 13 17 7 9 1022.3 - 0.0
19/07:30pm 20.2 14.5 -1.0 24 9.4 SE 19 28 10 15 1022.0 1020.4 0.0
19/07:00pm 20.6 14.8 -1.2 23 9.7 ESE 19 26 10 14 1021.5 - 0.0

Other Formats:

Comma delimited format used in spreadsheet applications
http://www.bom.gov.au/fwo/IDD60801/IDD60801.94457.axf

JavaScript Object Notation format (JSON) in row-major order
http://www.bom.gov.au/fwo/IDD60801/IDD60801.94457.json